首页
METAR-TAF:

METAR-TAF

机场 :

永珍, 老挝

瓦岱國際機場

纬度: 17-57N, 经度: 102-34E, 海拔: 171米

当前天气观测

该预报发布于16分钟前的03:00 UTC
风速4节,风向西北
温度 25°C
湿度 65%
气压 1015 hPa
能見度: 7000
少量云层高于20000英尺

METAR: VLVT 200300Z 32004KT 7000 FEW200 25/18 Q1015 NOSIG

时间: 10:16 (03:16 UTC)

预报

该预报发布于4小时和16分钟前的23:00 UTC
预报有效从20日的 00点(UTC)到 20日的 24点(UTC)
风速4节,风向西转西北
能見度: 8000
少量云层高于2000英尺
少量云层高于20000英尺
短暂存在
从 20日的 00点(UTC)到 20日的 03点(UTC)
能見度: 4000
轻雾

TAF: VLVT 192300Z 2000/2024 30004KT 8000 FEW020 FEW200 TEMPO 2000/2003 4000 BR NSC

超过4000个机场的气象观测和天气预报(METAR&TAF报告)。

可查询的气象台以黄色和红色小点在地图上表示。

将鼠标移到小点上方,可查看气象台名称。

然后点击查看天气观测和预报。

如需切换地图:点击带黑十字的绿色按钮放大地图;点击带横线的绿色按钮缩小地图;或者点击绿色箭头查看邻近地区的地图。


METAR-TAF: